createdAt,value
2023-03-16T00:00:57.896Z,100751.06
2023-03-16T00:03:25.824Z,100865.91
2023-03-16T00:05:54.988Z,100866.69
2023-03-16T00:08:22.820Z,100834.84
2023-03-16T00:10:54.205Z,100863.13
2023-03-16T00:13:25.862Z,100858.75
2023-03-16T00:15:55.180Z,100869.22
2023-03-16T00:18:27.124Z,100817.13
2023-03-16T00:20:56.883Z,100867.25
2023-03-16T00:23:27.306Z,100864.78
2023-03-16T00:25:55.734Z,100870.19
2023-03-16T00:28:26.848Z,100868.41
2023-03-16T00:30:58.844Z,100865.78
2023-03-16T00:33:27.428Z,100842.75
2023-03-16T00:36:02.528Z,100856.06
2023-03-16T00:38:32.241Z,100865.69
2023-03-16T00:41:00.117Z,100857.63
2023-03-16T00:43:29.511Z,100870.81
2023-03-16T00:46:06.612Z,100864.63
2023-03-16T00:48:35.632Z,100839.81
2023-03-16T00:51:04.331Z,100851.47
2023-03-16T00:53:33.470Z,100866.59
2023-03-16T00:56:04.329Z,100844.44
2023-03-16T00:58:37.476Z,100869.91
2023-03-16T01:01:06.928Z,100874.31
2023-03-16T01:03:35.199Z,100861.22
2023-03-16T01:06:06.116Z,100772.91
2023-03-16T01:08:34.179Z,100737.41
2023-03-16T01:11:05.026Z,100831.19
2023-03-16T01:13:34.937Z,100820.63
2023-03-16T01:16:04.009Z,100845.63
2023-03-16T01:18:34.400Z,100846.75
2023-03-16T01:21:03.568Z,100837.13
2023-03-16T01:23:34.237Z,100834.56
2023-03-16T01:26:02.325Z,100806.41
2023-03-16T01:28:31.828Z,100801.13
2023-03-16T01:31:03.148Z,100817.06
2023-03-16T01:33:31.887Z,100782.63
2023-03-16T01:36:04.186Z,100819.59
2023-03-16T01:38:41.201Z,100824.00
2023-03-16T01:41:09.832Z,100829.31
2023-03-16T01:43:39.765Z,100826.56
2023-03-16T01:46:22.547Z,100836.19
2023-03-16T01:49:00.722Z,100829.84
2023-03-16T01:51:34.351Z,100805.09
2023-03-16T01:54:07.741Z,100786.56
2023-03-16T01:56:41.757Z,100827.25
2023-03-16T01:59:14.084Z,100767.19
2023-03-16T02:01:42.562Z,100833.56
2023-03-16T02:04:28.441Z,100836.19
2023-03-16T02:07:01.050Z,100831.72
2023-03-16T02:09:32.071Z,100833.22
2023-03-16T02:12:01.303Z,100818.28
2023-03-16T02:14:30.745Z,100771.44
2023-03-16T02:16:58.911Z,100752.75
2023-03-16T02:19:39.612Z,100801.66
2023-03-16T02:22:09.858Z,100746.81
2023-03-16T02:24:39.300Z,100796.38
2023-03-16T02:27:10.409Z,100781.38
2023-03-16T02:30:01.749Z,100783.09
2023-03-16T02:32:36.350Z,100778.81
2023-03-16T02:35:05.076Z,100777.06
2023-03-16T02:37:34.394Z,100777.91
2023-03-16T02:40:05.635Z,100748.88
2023-03-16T02:42:34.541Z,100753.38
2023-03-16T02:45:04.511Z,100769.25
2023-03-16T02:47:39.952Z,100673.81
2023-03-16T02:50:09.848Z,100618.22
2023-03-16T02:52:39.221Z,100762.28
2023-03-16T02:55:08.529Z,100762.94
2023-03-16T02:57:36.473Z,100755.88
2023-03-16T03:00:17.365Z,100695.06
2023-03-16T03:02:47.323Z,100696.00
2023-03-16T03:05:15.324Z,100750.72
2023-03-16T03:07:43.239Z,100743.78
2023-03-16T03:10:12.192Z,100734.91
2023-03-16T03:12:40.135Z,100742.91
2023-03-16T03:15:11.964Z,100741.97
2023-03-16T03:17:52.343Z,100737.53
2023-03-16T03:20:21.602Z,100718.97
2023-03-16T03:22:52.891Z,100604.97
2023-03-16T03:25:22.043Z,100709.88
2023-03-16T03:27:51.656Z,100751.44
2023-03-16T03:30:24.644Z,100725.06
2023-03-16T03:32:53.382Z,100688.66
2023-03-16T03:35:23.339Z,100677.13
2023-03-16T03:37:51.663Z,100737.41
2023-03-16T03:40:21.572Z,100747.22
2023-03-16T03:42:56.164Z,100747.03
2023-03-16T03:45:26.744Z,100744.41
2023-03-16T03:47:56.170Z,100655.06
2023-03-16T03:50:24.588Z,100752.38
2023-03-16T03:53:18.836Z,100766.53
2023-03-16T03:56:07.759Z,100728.59
2023-03-16T03:58:38.825Z,100710.00
2023-03-16T04:01:08.308Z,100711.78
2023-03-16T04:03:36.762Z,100751.28
2023-03-16T04:06:07.138Z,100651.34
2023-03-16T04:08:35.753Z,100743.97
2023-03-16T04:11:06.605Z,100758.22
2023-03-16T04:13:35.166Z,100757.41
2023-03-16T04:16:03.795Z,100727.81
2023-03-16T04:18:40.459Z,100751.69
2023-03-16T04:21:18.822Z,100687.13
2023-03-16T04:23:49.108Z,100689.13
2023-03-16T04:26:17.878Z,100736.94
2023-03-16T04:28:48.417Z,100677.88
2023-03-16T04:31:19.378Z,100738.91
2023-03-16T04:33:49.954Z,100715.00
2023-03-16T04:36:18.340Z,100735.56
2023-03-16T04:38:46.621Z,100718.75
2023-03-16T04:41:14.652Z,100734.66
2023-03-16T04:43:54.507Z,100740.88
2023-03-16T04:46:26.653Z,100717.13
2023-03-16T04:48:58.789Z,100734.78
2023-03-16T04:51:29.403Z,100718.84
2023-03-16T04:54:06.697Z,100527.31
2023-03-16T04:56:37.002Z,100739.28
2023-03-16T04:59:10.734Z,100717.16
2023-03-16T05:02:02.697Z,100739.22
2023-03-16T05:04:32.266Z,100741.91
2023-03-16T05:07:01.148Z,100753.22
2023-03-16T05:09:34.539Z,100713.59
2023-03-16T05:12:02.561Z,100748.09
2023-03-16T05:14:32.260Z,100737.53
2023-03-16T05:17:18.520Z,100711.84
2023-03-16T05:19:48.958Z,100736.47
2023-03-16T05:22:18.347Z,100734.69
2023-03-16T05:25:13.790Z,100671.97
2023-03-16T05:27:42.787Z,100734.78
2023-03-16T05:30:16.199Z,100718.81
2023-03-16T05:32:45.384Z,100747.28
2023-03-16T05:35:15.776Z,100732.31
2023-03-16T05:37:44.575Z,100632.47
2023-03-16T05:40:18.308Z,100730.53
2023-03-16T05:42:57.004Z,100709.41
2023-03-16T05:45:26.385Z,100724.28
2023-03-16T05:48:06.373Z,100732.34
2023-03-16T05:50:39.617Z,100741.25
2023-03-16T05:53:08.832Z,100727.28
2023-03-16T05:55:38.627Z,100716.69
2023-03-16T05:58:09.524Z,100707.84
2023-03-16T06:00:39.427Z,100717.66
2023-03-16T06:03:21.490Z,100718.66
2023-03-16T06:05:51.121Z,100716.06
2023-03-16T06:08:27.333Z,100714.31
2023-03-16T06:11:00.923Z,100694.16
2023-03-16T06:13:28.773Z,100442.91
2023-03-16T06:15:56.788Z,100670.59
2023-03-16T06:18:25.112Z,100701.53
2023-03-16T06:20:54.435Z,100703.34
2023-03-16T06:23:23.065Z,100694.53
2023-03-16T06:25:54.599Z,100679.56
2023-03-16T06:28:25.118Z,100676.94
2023-03-16T06:30:55.071Z,100694.63
2023-03-16T06:33:24.885Z,100613.50
2023-03-16T06:35:54.467Z,100684.09
2023-03-16T06:38:31.122Z,100686.75
2023-03-16T06:41:02.775Z,100653.25
2023-03-16T06:43:33.483Z,100662.03
2023-03-16T06:46:01.564Z,100676.97
2023-03-16T06:48:29.748Z,100676.09
2023-03-16T06:50:59.899Z,100677.84
2023-03-16T06:53:30.211Z,100687.50
2023-03-16T06:55:58.865Z,100690.19
2023-03-16T06:58:28.777Z,100575.63
2023-03-16T07:00:56.879Z,100672.53
2023-03-16T07:03:24.820Z,100633.72
2023-03-16T07:05:59.441Z,100656.59
2023-03-16T07:08:27.534Z,100694.50
2023-03-16T07:10:55.569Z,100694.47
2023-03-16T07:13:23.764Z,100554.44
2023-03-16T07:15:52.960Z,100710.31
2023-03-16T07:18:22.497Z,100712.13
2023-03-16T07:20:50.770Z,100688.28
2023-03-16T07:23:20.140Z,100628.38
2023-03-16T07:25:48.006Z,100732.25
2023-03-16T07:28:19.052Z,100706.56
2023-03-16T07:31:02.439Z,100731.22
2023-03-16T07:33:33.787Z,100729.31
2023-03-16T07:36:05.976Z,100695.78
2023-03-16T07:38:40.038Z,100678.91
2023-03-16T07:41:09.034Z,100739.72
2023-03-16T07:43:37.149Z,100730.03
2023-03-16T07:46:05.536Z,100729.84
2023-03-16T07:48:33.532Z,100682.06
2023-03-16T07:51:03.460Z,100731.19
2023-03-16T07:53:33.051Z,100719.66
2023-03-16T07:56:16.858Z,100622.72
2023-03-16T07:58:47.561Z,100726.38
2023-03-16T08:01:15.846Z,100725.50
2023-03-16T08:03:44.868Z,100704.72
2023-03-16T08:06:13.116Z,100732.56
2023-03-16T08:08:41.026Z,100737.78
2023-03-16T08:11:11.740Z,100727.97
2023-03-16T08:13:56.591Z,100728.78
2023-03-16T08:16:28.018Z,100724.22
2023-03-16T08:18:58.129Z,100716.28
2023-03-16T08:21:26.174Z,100725.84
2023-03-16T08:23:55.094Z,100714.38
2023-03-16T08:26:24.827Z,100735.25
2023-03-16T08:29:02.496Z,100710.38
2023-03-16T08:31:35.072Z,100735.44
2023-03-16T08:34:16.123Z,100731.03
2023-03-16T08:36:45.614Z,100714.09
2023-03-16T08:39:16.500Z,100734.22
2023-03-16T08:41:48.356Z,100701.25
2023-03-16T08:44:30.328Z,100725.56
2023-03-16T08:46:59.530Z,100719.50
2023-03-16T08:49:27.371Z,100722.31
2023-03-16T08:52:05.278Z,100715.31
2023-03-16T08:54:33.669Z,100693.53
2023-03-16T08:57:01.612Z,100709.44
2023-03-16T08:59:31.306Z,100717.63
2023-03-16T09:01:59.238Z,100694.44
2023-03-16T09:04:28.285Z,100672.34
2023-03-16T09:07:07.831Z,100705.03
2023-03-16T09:09:37.038Z,100704.53
2023-03-16T09:12:05.967Z,100609.38
2023-03-16T09:14:37.151Z,100693.09
2023-03-16T09:17:05.198Z,100689.16
2023-03-16T09:19:50.092Z,100659.84
2023-03-16T09:22:19.539Z,100679.44
2023-03-16T09:24:48.493Z,100690.69
2023-03-16T09:27:16.879Z,100701.50
2023-03-16T09:29:46.638Z,100697.97
2023-03-16T09:32:15.402Z,100700.38
2023-03-16T09:34:44.717Z,100708.16
2023-03-16T09:37:12.781Z,100706.72
2023-03-16T09:39:40.665Z,100699.44
2023-03-16T09:42:17.553Z,100688.56
2023-03-16T09:44:57.354Z,100683.31
2023-03-16T09:47:29.693Z,100710.31
2023-03-16T09:49:59.954Z,100700.31
2023-03-16T09:52:34.419Z,100705.56
2023-03-16T09:55:44.187Z,100697.38
2023-03-16T09:58:35.339Z,100704.56
2023-03-16T10:01:51.368Z,100694.88
2023-03-16T10:04:46.289Z,100693.22
2023-03-16T10:13:44.839Z,100667.06
2023-03-16T10:16:18.449Z,100681.94
2023-03-16T10:18:50.950Z,100683.63
2023-03-16T10:21:23.402Z,100682.56
2023-03-16T10:23:56.040Z,100667.47
2023-03-16T10:26:29.712Z,100667.66
2023-03-16T10:28:57.678Z,100655.78
2023-03-16T10:31:25.470Z,100683.16
2023-03-16T10:34:02.618Z,100682.66
2023-03-16T10:36:33.625Z,100650.78
2023-03-16T10:39:05.007Z,100666.69
2023-03-16T10:41:35.318Z,100649.19
2023-03-16T10:44:07.505Z,100662.88
2023-03-16T10:46:41.793Z,100656.63
2023-03-16T10:49:25.309Z,100646.47
2023-03-16T10:51:55.362Z,100658.56
2023-03-16T10:54:30.523Z,100657.47
2023-03-16T10:56:59.170Z,100651.16
2023-03-16T10:59:34.397Z,100653.91
2023-03-16T11:02:05.325Z,100653.78
2023-03-16T11:04:35.634Z,100655.63
2023-03-16T11:07:03.317Z,100665.63
2023-03-16T11:09:34.529Z,100636.94
2023-03-16T11:12:15.361Z,100646.25
2023-03-16T11:14:45.345Z,100637.88
2023-03-16T11:17:17.972Z,100636.16
2023-03-16T11:19:53.096Z,100624.38
2023-03-16T11:22:24.239Z,100598.88
2023-03-16T11:24:57.554Z,100617.75
2023-03-16T11:27:27.859Z,100626.38
2023-03-16T11:29:59.897Z,100618.44
2023-03-16T11:32:32.208Z,100608.22
2023-03-16T11:35:04.365Z,100412.34
2023-03-16T11:37:49.794Z,100605.16
2023-03-16T11:40:30.409Z,100607.09
2023-03-16T11:43:07.057Z,100600.19
2023-03-16T11:45:43.178Z,100576.78
2023-03-16T11:48:30.334Z,100597.09
2023-03-16T11:51:06.353Z,100461.75
2023-03-16T11:53:47.889Z,100579.06
2023-03-16T11:56:25.098Z,100574.16
2023-03-16T11:59:15.807Z,100580.22
2023-03-16T12:02:00.981Z,100519.03
2023-03-16T12:04:49.896Z,100572.47
2023-03-16T12:07:50.908Z,100514.66
2023-03-16T12:10:26.572Z,100563.28
2023-03-16T12:13:10.441Z,100574.50
2023-03-16T12:15:44.915Z,100561.53
2023-03-16T12:18:18.190Z,100557.97
2023-03-16T12:20:52.123Z,100557.25
2023-03-16T12:23:27.215Z,100546.34
2023-03-16T12:25:57.836Z,100546.81
2023-03-16T12:28:27.691Z,100554.88
2023-03-16T12:31:15.137Z,100539.97
2023-03-16T12:34:07.768Z,100438.25
2023-03-16T12:36:57.662Z,100525.97
2023-03-16T12:39:40.903Z,100534.66
2023-03-16T12:42:23.394Z,100468.22
2023-03-16T12:44:57.559Z,100500.81
2023-03-16T12:47:33.680Z,100483.59
2023-03-16T12:50:07.311Z,100515.56
2023-03-16T12:52:42.960Z,100520.41
2023-03-16T12:55:17.635Z,100516.19
2023-03-16T12:57:46.908Z,100500.81
2023-03-16T13:00:16.511Z,100494.84
2023-03-16T13:02:51.063Z,100492.66
2023-03-16T13:05:29.000Z,100501.06
2023-03-16T13:08:08.908Z,100475.00
2023-03-16T13:10:38.721Z,100455.91
2023-03-16T13:13:11.610Z,100472.63
2023-03-16T13:15:40.227Z,100457.84
2023-03-16T13:18:23.798Z,100363.94
2023-03-16T13:20:54.941Z,100460.63
2023-03-16T13:23:25.486Z,100456.28
2023-03-16T13:26:05.643Z,100468.09
2023-03-16T13:28:36.639Z,100430.91
2023-03-16T13:31:06.193Z,100462.47
2023-03-16T13:33:36.937Z,100454.28
2023-03-16T13:36:07.271Z,100318.69
2023-03-16T13:38:35.059Z,100448.78
2023-03-16T13:41:10.308Z,100445.53
2023-03-16T13:43:43.774Z,100442.44
2023-03-16T13:46:15.887Z,100448.47
2023-03-16T13:48:44.049Z,100448.63
2023-03-16T13:51:17.636Z,100439.41
2023-03-16T13:53:45.996Z,100428.16
2023-03-16T13:56:17.190Z,100435.53
2023-03-16T13:58:48.417Z,100412.44
2023-03-16T14:01:26.051Z,100426.00
2023-03-16T14:03:56.468Z,100423.66
2023-03-16T14:06:26.730Z,100398.63
2023-03-16T14:08:57.696Z,100408.72
2023-03-16T14:11:28.899Z,100394.88
2023-03-16T14:13:58.268Z,100390.31
2023-03-16T14:16:29.690Z,100384.28
2023-03-16T14:19:05.099Z,100384.41
2023-03-16T14:21:35.293Z,100318.00
2023-03-16T14:24:05.696Z,100384.81
2023-03-16T14:26:43.199Z,100372.66
2023-03-16T14:29:21.290Z,100373.03
2023-03-16T14:31:49.683Z,100372.03
2023-03-16T14:34:23.700Z,100351.22
2023-03-16T14:36:51.599Z,100371.91
2023-03-16T14:39:22.484Z,100359.81
2023-03-16T14:41:53.509Z,100357.13
2023-03-16T14:44:24.121Z,100361.16
2023-03-16T14:46:56.407Z,100355.19
2023-03-16T14:49:28.310Z,100338.94
2023-03-16T14:52:00.452Z,100341.78
2023-03-16T14:54:29.585Z,100323.53
2023-03-16T14:57:02.121Z,100328.94
2023-03-16T14:59:30.541Z,100326.25
2023-03-16T15:02:00.321Z,100339.72
2023-03-16T15:04:32.169Z,100339.00
2023-03-16T15:07:00.195Z,100286.50
2023-03-16T15:09:38.002Z,100316.22
2023-03-16T15:12:15.169Z,100317.03
2023-03-16T15:15:00.573Z,100311.41
2023-03-16T15:17:28.420Z,100229.56
2023-03-16T15:19:56.370Z,100279.84
2023-03-16T15:22:29.003Z,100310.44
2023-03-16T15:24:58.144Z,100301.81
2023-03-16T15:27:34.690Z,100306.13
2023-03-16T15:30:02.952Z,100262.03
2023-03-16T15:32:30.855Z,100298.31
2023-03-16T15:34:58.694Z,100228.50
2023-03-16T15:37:27.826Z,100257.38
2023-03-16T15:39:55.809Z,100257.03
2023-03-16T15:42:25.867Z,100256.19
2023-03-16T15:44:55.297Z,100257.78
2023-03-16T15:47:23.236Z,100259.78
2023-03-16T15:49:51.279Z,100253.69
2023-03-16T15:52:32.702Z,100250.44
2023-03-16T15:55:04.507Z,100262.28
2023-03-16T15:57:32.669Z,100271.19
2023-03-16T16:00:02.442Z,100262.44
2023-03-16T16:02:33.553Z,100200.34
2023-03-16T16:05:01.988Z,100250.13
2023-03-16T16:07:30.019Z,100252.25
2023-03-16T16:09:57.902Z,100213.38
2023-03-16T16:12:27.271Z,100238.72
2023-03-16T16:14:56.693Z,100218.44
2023-03-16T16:17:43.819Z,100154.53
2023-03-16T16:20:20.428Z,100129.66
2023-03-16T16:22:48.534Z,100217.97
2023-03-16T16:25:17.441Z,100216.97
2023-03-16T16:27:45.796Z,100209.13
2023-03-16T16:30:22.134Z,100160.38
2023-03-16T16:32:52.125Z,100177.03
2023-03-16T16:35:22.883Z,100202.38
2023-03-16T16:37:51.759Z,100193.41
2023-03-16T16:40:21.797Z,100201.63
2023-03-16T16:42:51.748Z,100180.50
2023-03-16T16:45:22.260Z,100016.16
2023-03-16T16:47:53.201Z,100192.94
2023-03-16T16:50:23.853Z,100163.91
2023-03-16T16:52:52.519Z,100196.09
2023-03-16T16:55:21.317Z,100206.81
2023-03-16T16:57:50.399Z,100211.75
2023-03-16T17:00:21.033Z,100204.00
2023-03-16T17:02:53.511Z,100206.97
2023-03-16T17:05:23.010Z,100172.50
2023-03-16T17:07:51.973Z,100202.03
2023-03-16T17:10:22.368Z,100203.28
2023-03-16T17:12:51.639Z,100199.97
2023-03-16T17:15:26.556Z,100175.06
2023-03-16T17:18:01.927Z,100199.00
2023-03-16T17:20:30.146Z,100191.97
2023-03-16T17:23:00.225Z,100198.28
2023-03-16T17:25:30.260Z,100148.59
2023-03-16T17:27:58.865Z,100189.59
2023-03-16T17:30:29.004Z,100192.41
2023-03-16T17:33:03.780Z,100194.94
2023-03-16T17:35:32.263Z,100200.72
2023-03-16T17:38:00.264Z,100173.69
2023-03-16T17:40:28.727Z,100196.81
2023-03-16T17:42:56.982Z,100112.38
2023-03-16T17:45:28.351Z,100189.91
2023-03-16T17:47:57.934Z,100202.44
2023-03-16T17:50:29.624Z,100189.72
2023-03-16T17:52:57.843Z,100199.16
2023-03-16T17:55:25.900Z,100206.47
2023-03-16T17:57:55.318Z,100197.00
2023-03-16T18:00:26.736Z,100204.75
2023-03-16T18:02:56.577Z,100200.31
2023-03-16T18:05:28.777Z,100197.88
2023-03-16T18:08:01.018Z,100192.00
2023-03-16T18:10:30.515Z,100197.03
2023-03-16T18:13:01.879Z,100179.84
2023-03-16T18:15:32.914Z,100187.84
2023-03-16T18:18:02.137Z,100183.59
2023-03-16T18:20:34.456Z,100190.56
2023-03-16T18:23:04.785Z,100173.94
2023-03-16T18:25:36.043Z,100180.84
2023-03-16T18:28:03.952Z,100143.34
2023-03-16T18:30:33.042Z,100178.78
2023-03-16T18:33:03.185Z,100166.41
2023-03-16T18:35:32.892Z,100101.13
2023-03-16T18:38:01.084Z,100184.03
2023-03-16T18:40:29.162Z,100168.16
2023-03-16T18:42:57.275Z,100181.50
2023-03-16T18:45:28.300Z,100168.25
2023-03-16T18:47:57.953Z,100177.97
2023-03-16T18:50:27.931Z,100182.81
2023-03-16T18:52:58.256Z,100182.47
2023-03-16T18:55:28.834Z,100145.00
2023-03-16T18:57:57.354Z,100172.97
2023-03-16T19:00:29.105Z,100107.78
2023-03-16T19:02:59.406Z,100174.16
2023-03-16T19:05:31.809Z,100184.47
2023-03-16T19:08:01.175Z,100182.84
2023-03-16T19:10:32.823Z,100175.91
2023-03-16T19:13:00.665Z,100186.56
2023-03-16T19:15:31.813Z,100194.22
2023-03-16T19:18:00.233Z,100195.06
2023-03-16T19:20:30.385Z,100171.38
2023-03-16T19:23:05.188Z,100192.38
2023-03-16T19:25:36.149Z,100189.72
2023-03-16T19:28:05.749Z,100176.16
2023-03-16T19:30:35.830Z,100173.06
2023-03-16T19:33:03.877Z,100173.84
2023-03-16T19:35:50.312Z,100173.84
2023-03-16T19:38:20.800Z,100176.75
2023-03-16T19:40:50.606Z,100180.03
2023-03-16T19:43:20.006Z,100164.56
2023-03-16T19:45:48.939Z,100170.25
2023-03-16T19:48:20.443Z,100117.00
2023-03-16T19:50:49.155Z,100153.22
2023-03-16T19:53:19.513Z,100163.69
2023-03-16T19:55:49.686Z,100158.06
2023-03-16T19:58:24.645Z,100147.34
2023-03-16T20:00:52.495Z,100095.78
2023-03-16T20:03:20.688Z,100140.22
2023-03-16T20:05:48.591Z,100137.25
2023-03-16T20:08:25.410Z,100135.72
2023-03-16T20:10:57.976Z,100129.53
2023-03-16T20:13:26.841Z,100138.69
2023-03-16T20:15:54.757Z,100132.78
2023-03-16T20:18:22.722Z,100135.25
2023-03-16T20:20:51.094Z,100129.78
2023-03-16T20:23:22.969Z,100119.88
2023-03-16T20:25:52.146Z,100115.78
2023-03-16T20:28:24.306Z,100127.16
2023-03-16T20:30:52.602Z,100134.06
2023-03-16T20:33:23.815Z,100128.78
2023-03-16T20:35:53.687Z,100120.75
2023-03-16T20:38:22.806Z,100132.69
2023-03-16T20:40:53.360Z,100127.53
2023-03-16T20:43:27.915Z,100123.31
2023-03-16T20:45:58.150Z,100113.75
2023-03-16T20:48:26.326Z,100133.16
2023-03-16T20:50:55.055Z,100129.81
2023-03-16T20:53:23.863Z,100118.34
2023-03-16T20:55:53.132Z,100126.22
2023-03-16T20:58:24.450Z,100127.28
2023-03-16T21:00:57.514Z,100115.06
2023-03-16T21:03:28.401Z,100094.69
2023-03-16T21:05:59.966Z,100011.63
2023-03-16T21:08:28.294Z,100104.19
2023-03-16T21:10:57.136Z,100079.66
2023-03-16T21:13:31.076Z,100108.63
2023-03-16T21:16:02.624Z,100109.63
2023-03-16T21:18:31.309Z,100096.41
2023-03-16T21:20:59.412Z,100098.19
2023-03-16T21:23:27.368Z,100100.66
2023-03-16T21:25:57.485Z,100104.47
2023-03-16T21:28:27.742Z,100096.00
2023-03-16T21:30:56.540Z,100083.28
2023-03-16T21:33:31.042Z,100087.88
2023-03-16T21:36:00.008Z,100058.75
2023-03-16T21:38:28.917Z,100070.09
2023-03-16T21:40:57.380Z,100075.84
2023-03-16T21:43:26.111Z,100076.00
2023-03-16T21:45:55.126Z,100057.78
2023-03-16T21:48:25.183Z,100075.38
2023-03-16T21:50:54.921Z,100074.84
2023-03-16T21:53:25.694Z,100074.69
2023-03-16T21:55:54.941Z,100008.31
2023-03-16T21:58:23.928Z,100069.34
2023-03-16T22:00:54.158Z,100064.16
2023-03-16T22:03:29.609Z,100059.53
2023-03-16T22:06:02.507Z,100050.94
2023-03-16T22:08:32.699Z,100063.03
2023-03-16T22:11:01.494Z,100062.16
2023-03-16T22:13:29.577Z,100060.50
2023-03-16T22:15:59.336Z,100037.22
2023-03-16T22:18:30.364Z,100053.59
2023-03-16T22:21:00.605Z,99981.84
2023-03-16T22:23:31.877Z,100036.16
2023-03-16T22:26:00.187Z,100002.50
2023-03-16T22:28:29.054Z,100043.03
2023-03-16T22:30:59.562Z,100042.06
2023-03-16T22:33:30.891Z,100032.53
2023-03-16T22:36:04.935Z,100035.94
2023-03-16T22:38:34.254Z,100027.66
2023-03-16T22:41:02.229Z,100016.66
2023-03-16T22:43:32.933Z,99822.84
2023-03-16T22:46:00.996Z,100021.94
2023-03-16T22:48:30.803Z,100015.50
2023-03-16T22:51:03.823Z,100004.72
2023-03-16T22:53:38.742Z,100024.88
2023-03-16T22:56:07.547Z,100021.09
2023-03-16T22:58:37.689Z,100014.06
2023-03-16T23:01:17.125Z,100016.94
2023-03-16T23:03:45.907Z,100002.22
2023-03-16T23:06:18.173Z,100014.06
2023-03-16T23:08:47.948Z,100007.53
2023-03-16T23:11:18.856Z,100010.63
2023-03-16T23:13:47.038Z,99975.44
2023-03-16T23:16:20.987Z,99972.22
2023-03-16T23:18:49.969Z,100008.69
2023-03-16T23:21:20.650Z,100002.41
2023-03-16T23:24:02.746Z,99989.22
2023-03-16T23:26:32.747Z,99992.69
2023-03-16T23:29:00.804Z,100001.72
2023-03-16T23:31:28.717Z,100003.06
2023-03-16T23:33:56.613Z,99995.97
2023-03-16T23:36:25.971Z,99985.53
2023-03-16T23:38:55.371Z,99987.31
2023-03-16T23:41:25.389Z,99994.94
2023-03-16T23:43:54.102Z,99943.41
2023-03-16T23:46:24.477Z,99989.69
2023-03-16T23:48:54.427Z,99985.16
2023-03-16T23:51:25.739Z,99995.13
2023-03-16T23:53:55.009Z,99953.19
2023-03-16T23:56:23.150Z,99959.78
2023-03-16T23:58:51.757Z,99983.31
